createdAt,value
2018-12-22T00:00:32.017Z,9.63
2018-12-22T00:01:31.993Z,9.59
2018-12-22T00:02:31.970Z,9.47
2018-12-22T00:03:31.947Z,9.48
2018-12-22T00:04:31.924Z,9.57
2018-12-22T00:05:31.901Z,9.47
2018-12-22T00:06:31.884Z,9.36
2018-12-22T00:07:31.856Z,9.33
2018-12-22T00:08:31.880Z,9.27
2018-12-22T00:09:32.034Z,9.26
2018-12-22T00:10:31.809Z,9.30
2018-12-22T00:11:31.818Z,9.26
2018-12-22T00:12:31.745Z,9.27
2018-12-22T00:13:31.717Z,9.37
2018-12-22T00:14:31.696Z,9.30
2018-12-22T00:15:31.725Z,9.26
2018-12-22T00:16:31.650Z,9.42
2018-12-22T00:17:31.630Z,9.40
2018-12-22T00:18:31.620Z,9.37
2018-12-22T00:19:31.586Z,9.40
2018-12-22T00:20:31.558Z,9.45
2018-12-22T00:21:31.547Z,9.41
2018-12-22T00:22:31.511Z,9.45
2018-12-22T00:23:31.494Z,9.45
2018-12-22T00:24:31.466Z,9.40
2018-12-22T00:25:31.442Z,9.41
2018-12-22T00:26:31.418Z,9.29
2018-12-22T00:27:31.401Z,9.44
2018-12-22T00:28:31.376Z,9.47
2018-12-22T00:29:31.353Z,9.42
2018-12-22T00:30:31.326Z,9.50
2018-12-22T00:31:31.306Z,9.42
2018-12-22T00:32:31.279Z,9.47
2018-12-22T00:33:31.258Z,9.47
2018-12-22T00:34:31.233Z,9.52
2018-12-22T00:35:31.212Z,9.40
2018-12-22T00:36:31.191Z,9.42
2018-12-22T00:37:31.165Z,9.41
2018-12-22T00:38:31.142Z,9.42
2018-12-22T00:39:31.119Z,9.41
2018-12-22T00:40:31.100Z,9.45
2018-12-22T00:41:31.077Z,9.44
2018-12-22T00:42:31.049Z,9.42
2018-12-22T00:43:31.026Z,9.40
2018-12-22T00:44:31.005Z,9.40
2018-12-22T00:45:30.985Z,9.32
2018-12-22T00:46:30.961Z,9.26
2018-12-22T00:47:30.934Z,9.34
2018-12-22T00:48:30.916Z,9.36
2018-12-22T00:49:30.888Z,9.33
2018-12-22T00:50:30.870Z,9.32
2018-12-22T00:51:30.842Z,9.30
2018-12-22T00:52:30.818Z,9.40
2018-12-22T00:53:30.796Z,9.33
2018-12-22T00:54:30.778Z,9.29
2018-12-22T00:55:30.755Z,9.29
2018-12-22T00:56:30.727Z,9.27
2018-12-22T00:57:30.710Z,9.30
2018-12-22T00:58:31.071Z,9.27
2018-12-22T00:59:30.658Z,9.26
2018-12-22T01:00:30.635Z,9.34
2018-12-22T01:01:30.615Z,9.26
2018-12-22T01:02:30.590Z,9.27
2018-12-22T01:03:30.566Z,9.40
2018-12-22T01:04:30.542Z,9.41
2018-12-22T01:05:30.520Z,9.34
2018-12-22T01:06:30.496Z,9.40
2018-12-22T01:07:30.474Z,9.27
2018-12-22T01:08:30.449Z,9.18
2018-12-22T01:09:30.432Z,9.12
2018-12-22T01:10:30.404Z,9.14
2018-12-22T01:11:30.382Z,9.09
2018-12-22T01:12:30.358Z,9.04
2018-12-22T01:13:30.335Z,9.11
2018-12-22T01:14:30.314Z,9.06
2018-12-22T01:15:30.289Z,8.98
2018-12-22T01:16:30.266Z,8.93
2018-12-22T01:17:30.242Z,8.96
2018-12-22T01:18:30.220Z,8.96
2018-12-22T01:19:30.200Z,8.90
2018-12-22T01:20:30.172Z,8.86
2018-12-22T01:21:30.150Z,8.88
2018-12-22T01:22:30.126Z,8.80
2018-12-22T01:23:30.114Z,8.74
2018-12-22T01:24:30.080Z,8.77
2018-12-22T01:25:30.057Z,8.71
2018-12-22T01:26:30.038Z,8.83
2018-12-22T01:27:30.010Z,8.77
2018-12-22T01:28:29.986Z,8.78
2018-12-22T01:29:29.963Z,8.80
2018-12-22T01:30:29.944Z,8.80
2018-12-22T01:31:29.925Z,8.77
2018-12-22T01:32:29.893Z,8.80
2018-12-22T01:33:29.871Z,8.83
2018-12-22T01:34:29.846Z,8.74
2018-12-22T01:35:29.824Z,8.75
2018-12-22T01:36:29.804Z,8.75
2018-12-22T01:37:29.776Z,8.77
2018-12-22T01:38:29.754Z,8.78
2018-12-22T01:39:29.730Z,8.81
2018-12-22T01:40:29.705Z,8.75
2018-12-22T01:41:29.687Z,8.81
2018-12-22T01:42:29.660Z,8.81
2018-12-22T01:43:29.641Z,8.77
2018-12-22T01:44:29.611Z,8.86
2018-12-22T01:45:29.588Z,8.85
2018-12-22T01:46:29.569Z,8.90
2018-12-22T01:47:29.543Z,8.85
2018-12-22T01:48:29.517Z,8.74
2018-12-22T01:49:29.496Z,8.92
2018-12-22T01:50:29.476Z,8.88
2018-12-22T01:51:29.447Z,8.90
2018-12-22T01:52:29.422Z,8.89
2018-12-22T01:53:29.401Z,8.92
2018-12-22T01:54:29.378Z,8.86
2018-12-22T01:55:29.355Z,8.92
2018-12-22T01:56:29.330Z,8.95
2018-12-22T01:57:29.310Z,8.92
2018-12-22T01:58:29.284Z,8.99
2018-12-22T01:59:29.259Z,9.03
2018-12-22T02:00:29.237Z,9.01
2018-12-22T02:01:29.216Z,9.03
2018-12-22T02:02:29.190Z,8.98
2018-12-22T02:03:29.166Z,8.98
2018-12-22T02:04:29.149Z,8.95
2018-12-22T02:05:29.123Z,8.95
2018-12-22T02:06:29.096Z,8.88
2018-12-22T02:07:29.073Z,8.88
2018-12-22T02:08:29.055Z,8.96
2018-12-22T02:09:29.025Z,8.95
2018-12-22T02:10:29.008Z,8.98
2018-12-22T02:11:28.978Z,8.99
2018-12-22T02:12:28.964Z,8.95
2018-12-22T02:13:28.935Z,8.93
2018-12-22T02:14:28.910Z,8.93
2018-12-22T02:15:28.885Z,8.90
2018-12-22T02:16:28.862Z,8.90
2018-12-22T02:17:28.843Z,8.90
2018-12-22T02:18:28.814Z,8.86
2018-12-22T02:19:28.794Z,8.77
2018-12-22T02:20:28.768Z,8.83
2018-12-22T02:21:28.745Z,8.80
2018-12-22T02:22:28.726Z,8.83
2018-12-22T02:23:28.704Z,8.74
2018-12-22T02:24:28.684Z,8.71
2018-12-22T02:25:28.653Z,8.67
2018-12-22T02:26:28.630Z,8.65
2018-12-22T02:27:28.610Z,8.62
2018-12-22T02:28:28.581Z,8.56
2018-12-22T02:29:28.559Z,8.53
2018-12-22T02:30:28.542Z,8.52
2018-12-22T02:31:28.513Z,8.60
2018-12-22T02:32:28.490Z,8.60
2018-12-22T02:33:28.465Z,8.55
2018-12-22T02:34:28.458Z,8.59
2018-12-22T02:35:28.420Z,8.57
2018-12-22T02:36:28.397Z,8.55
2018-12-22T02:37:28.371Z,8.65
2018-12-22T02:38:28.353Z,8.71
2018-12-22T02:39:28.326Z,8.72
2018-12-22T02:40:28.302Z,8.68
2018-12-22T02:41:28.283Z,8.67
2018-12-22T02:42:28.255Z,8.60
2018-12-22T02:43:28.231Z,8.55
2018-12-22T02:44:28.210Z,8.53
2018-12-22T02:45:28.189Z,8.53
2018-12-22T02:46:28.161Z,8.53
2018-12-22T02:47:28.138Z,8.50
2018-12-22T02:48:28.113Z,8.47
2018-12-22T02:49:28.089Z,8.56
2018-12-22T02:50:28.066Z,8.55
2018-12-22T02:51:28.042Z,8.53
2018-12-22T02:52:28.017Z,8.52
2018-12-22T02:53:28.000Z,8.39
2018-12-22T02:54:27.976Z,8.41
2018-12-22T02:55:27.951Z,8.41
2018-12-22T02:56:27.925Z,8.42
2018-12-22T02:57:27.903Z,8.41
2018-12-22T02:58:27.878Z,8.39
2018-12-22T02:59:27.855Z,8.41
2018-12-22T03:00:27.830Z,8.53
2018-12-22T03:01:27.808Z,8.53
2018-12-22T03:02:27.782Z,8.39
2018-12-22T03:03:27.761Z,8.42
2018-12-22T03:04:27.739Z,8.39
2018-12-22T03:05:27.714Z,8.52
2018-12-22T03:06:27.689Z,8.47
2018-12-22T03:07:27.668Z,8.52
2018-12-22T03:08:27.644Z,8.49
2018-12-22T03:09:27.616Z,8.60
2018-12-22T03:10:27.591Z,8.59
2018-12-22T03:11:27.568Z,8.63
2018-12-22T03:12:27.548Z,8.59
2018-12-22T03:13:27.520Z,8.59
2018-12-22T03:14:27.503Z,8.63
2018-12-22T03:15:27.474Z,8.62
2018-12-22T03:16:27.459Z,8.67
2018-12-22T03:17:27.431Z,8.53
2018-12-22T03:18:27.407Z,8.50
2018-12-22T03:19:27.389Z,8.56
2018-12-22T03:20:27.355Z,8.55
2018-12-22T03:21:27.330Z,8.56
2018-12-22T03:22:27.307Z,8.56
2018-12-22T03:23:27.288Z,8.56
2018-12-22T03:24:27.259Z,8.65
2018-12-22T03:25:27.241Z,8.60
2018-12-22T03:26:27.217Z,8.68
2018-12-22T03:27:27.190Z,8.65
2018-12-22T03:28:27.166Z,8.67
2018-12-22T03:29:27.146Z,8.67
2018-12-22T03:30:27.151Z,8.67
2018-12-22T03:31:27.100Z,8.59
2018-12-22T03:32:27.072Z,8.63
2018-12-22T03:33:27.050Z,8.50
2018-12-22T03:34:27.030Z,8.59
2018-12-22T03:35:27.102Z,8.55
2018-12-22T03:36:26.977Z,8.67
2018-12-22T03:37:26.953Z,8.68
2018-12-22T03:38:26.931Z,8.68
2018-12-22T03:39:26.910Z,8.53
2018-12-22T03:40:26.881Z,8.56
2018-12-22T03:41:26.859Z,8.62
2018-12-22T03:42:26.834Z,8.62
2018-12-22T03:43:26.817Z,8.68
2018-12-22T03:44:26.791Z,8.68
2018-12-22T03:45:26.763Z,8.70
2018-12-22T03:46:26.741Z,8.56
2018-12-22T03:47:26.718Z,8.57
2018-12-22T03:48:26.692Z,8.53
2018-12-22T03:49:26.675Z,8.59
2018-12-22T03:50:26.646Z,8.50
2018-12-22T03:51:26.623Z,8.49
2018-12-22T03:52:26.600Z,8.52
2018-12-22T03:53:26.579Z,8.52
2018-12-22T03:54:26.551Z,8.49
2018-12-22T03:55:26.529Z,8.38
2018-12-22T03:56:26.519Z,8.38
2018-12-22T03:57:26.481Z,8.50
2018-12-22T03:58:26.461Z,8.47
2018-12-22T03:59:26.440Z,8.50
2018-12-22T04:00:26.412Z,8.49
2018-12-22T04:01:26.387Z,8.56
2018-12-22T04:02:26.366Z,8.52
2018-12-22T04:03:26.340Z,8.55
2018-12-22T04:04:26.314Z,8.57
2018-12-22T04:05:26.297Z,8.57
2018-12-22T04:06:26.270Z,8.50
2018-12-22T04:07:26.246Z,8.53
2018-12-22T04:08:26.226Z,8.55
2018-12-22T04:09:26.202Z,8.47
2018-12-22T04:10:26.175Z,8.56
2018-12-22T04:11:26.156Z,8.50
2018-12-22T04:12:26.126Z,8.57
2018-12-22T04:13:26.103Z,8.55
2018-12-22T04:14:26.084Z,8.59
2018-12-22T04:15:26.058Z,8.53
2018-12-22T04:16:26.033Z,8.49
2018-12-22T04:17:26.009Z,8.50
2018-12-22T04:18:25.985Z,8.47
2018-12-22T04:19:25.963Z,8.44
2018-12-22T04:20:25.938Z,8.39
2018-12-22T04:21:25.915Z,8.39
2018-12-22T04:22:25.895Z,8.39
2018-12-22T04:23:25.868Z,8.35
2018-12-22T04:24:25.843Z,8.41
2018-12-22T04:25:25.837Z,8.32
2018-12-22T04:26:25.802Z,8.34
2018-12-22T04:27:25.779Z,8.44
2018-12-22T04:28:25.754Z,8.38
2018-12-22T04:29:33.592Z,8.38
2018-12-22T04:30:25.707Z,8.41
2018-12-22T04:31:25.683Z,8.34
2018-12-22T04:32:25.659Z,8.28
2018-12-22T04:33:25.736Z,8.28
2018-12-22T04:34:25.665Z,8.32
2018-12-22T04:35:25.590Z,8.31
2018-12-22T04:36:25.565Z,8.32
2018-12-22T04:37:25.538Z,8.26
2018-12-22T04:38:25.514Z,8.32
2018-12-22T04:39:25.491Z,8.29
2018-12-22T04:40:25.471Z,8.32
2018-12-22T04:41:25.445Z,8.29
2018-12-22T04:42:25.420Z,8.26
2018-12-22T04:43:25.396Z,8.32
2018-12-22T04:44:25.387Z,8.20
2018-12-22T04:45:25.353Z,8.21
2018-12-22T04:46:25.420Z,8.23
2018-12-22T04:47:25.302Z,8.21
2018-12-22T04:48:25.281Z,8.17
2018-12-22T04:49:25.253Z,8.24
2018-12-22T04:50:25.230Z,8.24
2018-12-22T04:51:25.206Z,8.17
2018-12-22T04:52:25.182Z,8.23
2018-12-22T04:53:25.159Z,8.16
2018-12-22T04:54:25.135Z,8.19
2018-12-22T04:55:25.112Z,8.13
2018-12-22T04:56:25.098Z,8.19
2018-12-22T04:57:25.064Z,8.09
2018-12-22T04:58:25.040Z,8.13
2018-12-22T04:59:25.016Z,8.13
2018-12-22T05:00:24.992Z,8.10
2018-12-22T05:01:24.968Z,8.10
2018-12-22T05:02:24.945Z,8.06
2018-12-22T05:03:24.924Z,8.01
2018-12-22T05:04:24.902Z,8.09
2018-12-22T05:05:24.879Z,7.99
2018-12-22T05:06:24.853Z,8.01
2018-12-22T05:07:24.826Z,8.04
2018-12-22T05:08:24.806Z,8.02
2018-12-22T05:09:24.778Z,8.05
2018-12-22T05:10:24.754Z,8.06
2018-12-22T05:11:24.731Z,8.09
2018-12-22T05:12:24.707Z,8.02
2018-12-22T05:13:24.682Z,8.04
2018-12-22T05:14:24.664Z,8.09
2018-12-22T05:15:24.639Z,8.12
2018-12-22T05:16:24.611Z,8.09
2018-12-22T05:17:24.587Z,8.04
2018-12-22T05:18:24.568Z,7.99
2018-12-22T05:19:24.545Z,8.01
2018-12-22T05:20:24.521Z,8.01
2018-12-22T05:21:24.493Z,7.99
2018-12-22T05:22:24.468Z,8.04
2018-12-22T05:23:24.445Z,7.99
2018-12-22T05:24:24.423Z,7.92
2018-12-22T05:25:24.397Z,7.99
2018-12-22T05:26:24.475Z,7.95
2018-12-22T05:27:24.349Z,7.91
2018-12-22T05:28:24.334Z,7.91
2018-12-22T05:29:24.302Z,7.84
2018-12-22T05:30:24.277Z,7.91
2018-12-22T05:31:24.261Z,7.91
2018-12-22T05:32:24.229Z,7.92
2018-12-22T05:33:24.208Z,7.86
2018-12-22T05:34:24.182Z,7.80
2018-12-22T05:35:24.159Z,7.87
2018-12-22T05:36:24.133Z,7.81
2018-12-22T05:37:24.111Z,7.78
2018-12-22T05:38:24.091Z,7.78
2018-12-22T05:39:24.068Z,7.87
2018-12-22T05:40:24.037Z,7.84
2018-12-22T05:41:24.019Z,7.87
2018-12-22T05:42:23.990Z,7.76
2018-12-22T05:43:23.967Z,7.73
2018-12-22T05:44:23.943Z,7.81
2018-12-22T05:45:23.917Z,7.71
2018-12-22T05:46:23.895Z,7.66
2018-12-22T05:47:23.871Z,7.66
2018-12-22T05:48:23.846Z,7.64
2018-12-22T05:49:23.821Z,7.71
2018-12-22T05:50:23.801Z,7.69
2018-12-22T05:51:23.774Z,7.80
2018-12-22T05:52:23.749Z,7.77
2018-12-22T05:53:23.726Z,7.69
2018-12-22T05:54:23.707Z,7.57
2018-12-22T05:55:23.679Z,7.62
2018-12-22T05:56:23.654Z,7.60
2018-12-22T05:57:23.629Z,7.58
2018-12-22T05:58:23.610Z,7.58
2018-12-22T05:59:23.582Z,7.62
2018-12-22T06:00:23.558Z,7.61
2018-12-22T06:01:23.534Z,7.57
2018-12-22T06:02:23.509Z,7.64
2018-12-22T06:03:23.484Z,7.61
2018-12-22T06:04:23.460Z,7.58
2018-12-22T06:05:23.437Z,7.55
2018-12-22T06:06:23.413Z,7.57
2018-12-22T06:07:23.388Z,7.71
2018-12-22T06:08:23.364Z,7.71
2018-12-22T06:09:23.345Z,7.74
2018-12-22T06:10:23.316Z,7.74
2018-12-22T06:11:23.298Z,7.61
2018-12-22T06:12:23.267Z,7.73
2018-12-22T06:13:23.244Z,7.71
2018-12-22T06:14:23.221Z,7.71
2018-12-22T06:15:23.196Z,7.80
2018-12-22T06:16:23.177Z,7.77
2018-12-22T06:17:23.149Z,7.71
2018-12-22T06:18:23.125Z,7.69
2018-12-22T06:19:23.100Z,7.69
2018-12-22T06:20:23.076Z,7.74
2018-12-22T06:21:23.052Z,7.73
2018-12-22T06:22:23.033Z,7.69
2018-12-22T06:23:23.004Z,7.60
2018-12-22T06:24:22.979Z,7.57
2018-12-22T06:25:22.961Z,7.58
2018-12-22T06:26:22.937Z,7.55
2018-12-22T06:27:22.912Z,7.57
2018-12-22T06:28:22.882Z,7.57
2018-12-22T06:29:22.859Z,7.66
2018-12-22T06:30:22.836Z,7.57
2018-12-22T06:31:22.812Z,7.60
2018-12-22T06:32:22.787Z,7.57
2018-12-22T06:33:22.768Z,7.55
2018-12-22T06:34:22.743Z,7.61
2018-12-22T06:35:22.720Z,7.54
2018-12-22T06:36:22.690Z,7.54
2018-12-22T06:37:22.677Z,7.55
2018-12-22T06:38:22.647Z,7.60
2018-12-22T06:39:22.619Z,7.52
2018-12-22T06:40:22.595Z,7.58
2018-12-22T06:41:22.570Z,7.55
2018-12-22T06:42:22.551Z,7.58
2018-12-22T06:43:22.529Z,7.68
2018-12-22T06:44:22.498Z,7.71
2018-12-22T06:45:22.477Z,7.68
2018-12-22T06:46:22.454Z,7.69
2018-12-22T06:47:22.429Z,7.68
2018-12-22T06:48:22.409Z,7.71
2018-12-22T06:49:22.378Z,7.80
2018-12-22T06:50:22.354Z,7.74
2018-12-22T06:51:22.330Z,7.71
2018-12-22T06:52:22.306Z,7.87
2018-12-22T06:53:22.280Z,7.80
2018-12-22T06:54:22.259Z,7.78
2018-12-22T06:55:22.233Z,7.76
2018-12-22T06:56:22.214Z,7.74
2018-12-22T06:57:22.185Z,7.77
2018-12-22T06:58:22.166Z,7.84
2018-12-22T06:59:22.137Z,7.78
2018-12-22T07:00:22.121Z,7.81
2018-12-22T07:01:22.088Z,7.78
2018-12-22T07:02:22.067Z,7.81
2018-12-22T07:03:22.042Z,7.80
2018-12-22T07:04:22.021Z,7.84
2018-12-22T07:05:21.998Z,7.80
2018-12-22T07:06:21.970Z,7.81
2018-12-22T07:07:21.950Z,7.76
2018-12-22T07:08:21.920Z,7.81
2018-12-22T07:09:21.897Z,7.80
2018-12-22T07:10:21.873Z,7.84
2018-12-22T07:11:21.849Z,7.81
2018-12-22T07:12:21.825Z,7.77
2018-12-22T07:13:21.800Z,7.81
2018-12-22T07:14:21.778Z,7.80
2018-12-22T07:15:21.757Z,7.78
2018-12-22T07:16:21.734Z,7.88
2018-12-22T07:17:21.709Z,7.80
2018-12-22T07:18:21.693Z,7.81
2018-12-22T07:19:21.760Z,7.76
2018-12-22T07:20:21.634Z,7.76
2018-12-22T07:21:21.609Z,7.80
2018-12-22T07:22:23.355Z,7.78
2018-12-22T07:23:21.567Z,7.81
2018-12-22T07:24:21.545Z,7.78
2018-12-22T07:25:21.515Z,7.88
2018-12-22T07:26:21.495Z,7.83
2018-12-22T07:27:21.512Z,7.86
2018-12-22T07:28:21.458Z,7.81
2018-12-22T07:29:21.422Z,7.86
2018-12-22T07:30:26.067Z,7.84
2018-12-22T07:31:21.431Z,7.92
2018-12-22T07:32:21.352Z,7.83
2018-12-22T07:33:21.325Z,7.81
2018-12-22T07:34:21.301Z,7.87
2018-12-22T07:35:21.277Z,7.80
2018-12-22T07:36:21.251Z,7.88
2018-12-22T07:37:21.228Z,7.88
2018-12-22T07:38:21.205Z,7.88
2018-12-22T07:39:21.184Z,7.78
2018-12-22T07:40:21.163Z,7.86
2018-12-22T07:41:21.133Z,7.80
2018-12-22T07:42:21.115Z,7.81
2018-12-22T07:43:21.123Z,7.87
2018-12-22T07:44:21.065Z,7.80
2018-12-22T07:45:21.038Z,7.81
2018-12-22T07:46:21.013Z,7.83
2018-12-22T07:47:20.991Z,7.83
2018-12-22T07:48:20.965Z,7.80
2018-12-22T07:49:20.943Z,7.78
2018-12-22T07:50:20.919Z,7.91
2018-12-22T07:51:20.914Z,7.83
2018-12-22T07:52:20.876Z,7.80
2018-12-22T07:53:20.849Z,7.91
2018-12-22T07:54:20.822Z,7.91
2018-12-22T07:55:20.799Z,7.88
2018-12-22T07:56:20.776Z,7.88
2018-12-22T07:57:20.751Z,7.81
2018-12-22T07:58:20.732Z,7.86
2018-12-22T07:59:20.707Z,7.91
2018-12-22T08:00:20.679Z,7.87
2018-12-22T08:01:20.657Z,7.88
2018-12-22T08:02:20.637Z,7.88
2018-12-22T08:03:20.614Z,7.80
2018-12-22T08:04:20.584Z,7.88
2018-12-22T08:05:20.560Z,7.87
2018-12-22T08:06:20.542Z,7.88
2018-12-22T08:07:20.517Z,7.84
2018-12-22T08:08:20.491Z,7.88
2018-12-22T08:09:20.466Z,7.88
2018-12-22T08:10:20.447Z,7.88
2018-12-22T08:11:20.418Z,7.87
2018-12-22T08:12:20.399Z,7.91
2018-12-22T08:13:20.372Z,7.91
2018-12-22T08:14:20.352Z,7.87
2018-12-22T08:15:20.323Z,7.98
2018-12-22T08:16:20.299Z,7.88
2018-12-22T08:17:20.282Z,7.96
2018-12-22T08:18:20.252Z,8.02
2018-12-22T08:19:20.229Z,7.92
2018-12-22T08:20:20.209Z,7.95
2018-12-22T08:21:20.181Z,7.98
2018-12-22T08:22:20.158Z,8.02
2018-12-22T08:23:20.133Z,7.96
2018-12-22T08:24:20.110Z,7.95
2018-12-22T08:25:20.086Z,7.94
2018-12-22T08:26:20.063Z,7.98
2018-12-22T08:27:20.044Z,7.91
2018-12-22T08:28:20.018Z,7.94
2018-12-22T08:29:19.991Z,7.99
2018-12-22T08:30:19.968Z,8.04
2018-12-22T08:31:19.944Z,7.95
2018-12-22T08:32:19.924Z,7.99
2018-12-22T08:33:19.896Z,7.98
2018-12-22T08:34:19.873Z,7.98
2018-12-22T08:35:19.851Z,8.01
2018-12-22T08:36:19.827Z,8.01
2018-12-22T08:37:19.802Z,7.99
2018-12-22T08:38:19.779Z,8.01
2018-12-22T08:39:19.756Z,8.02
2018-12-22T08:40:19.735Z,8.01
2018-12-22T08:41:19.712Z,7.98
2018-12-22T08:42:19.684Z,8.06
2018-12-22T08:43:19.661Z,8.06
2018-12-22T08:44:19.637Z,8.04
2018-12-22T08:45:19.618Z,8.01
2018-12-22T08:46:19.589Z,8.09
2018-12-22T08:47:19.571Z,8.05
2018-12-22T08:48:19.543Z,8.04
2018-12-22T08:49:19.519Z,8.04
2018-12-22T08:50:19.495Z,8.02
2018-12-22T08:51:19.477Z,8.05
2018-12-22T08:52:19.447Z,8.02
2018-12-22T08:53:19.425Z,8.12
2018-12-22T08:54:19.502Z,8.14
2018-12-22T08:55:19.379Z,8.13
2018-12-22T08:56:19.355Z,8.04
2018-12-22T08:57:19.330Z,8.02
2018-12-22T08:58:19.306Z,8.10
2018-12-22T08:59:19.287Z,7.96
2018-12-22T09:00:19.263Z,8.06
2018-12-22T09:01:19.238Z,8.10
2018-12-22T09:02:19.214Z,8.13
2018-12-22T09:03:19.195Z,8.05
2018-12-22T09:04:19.170Z,8.12
2018-12-22T09:05:19.144Z,8.19
2018-12-22T09:06:19.119Z,8.12
2018-12-22T09:07:19.100Z,8.17
2018-12-22T09:08:19.076Z,8.13
2018-12-22T09:09:19.048Z,8.12
2018-12-22T09:10:19.026Z,8.13
2018-12-22T09:11:19.003Z,8.14
2018-12-22T09:12:18.982Z,8.17
2018-12-22T09:13:20.930Z,8.19
2018-12-22T09:14:18.931Z,8.10
2018-12-22T09:15:18.910Z,8.12
2018-12-22T09:16:18.886Z,8.14
2018-12-22T09:17:18.866Z,8.17
2018-12-22T09:18:18.838Z,8.21
2018-12-22T09:19:18.816Z,8.14
2018-12-22T09:20:18.796Z,8.16
2018-12-22T09:21:18.769Z,8.17
2018-12-22T09:22:18.746Z,8.20
2018-12-22T09:23:18.727Z,8.26
2018-12-22T09:24:18.698Z,8.21
2018-12-22T09:25:18.677Z,8.21
2018-12-22T09:26:18.657Z,8.23
2018-12-22T09:27:18.630Z,8.24
2018-12-22T09:28:18.604Z,8.21
2018-12-22T09:29:18.583Z,8.21
2018-12-22T09:30:18.558Z,8.17
2018-12-22T09:31:18.543Z,8.20
2018-12-22T09:32:18.513Z,8.19
2018-12-22T09:33:18.493Z,8.13
2018-12-22T09:34:18.470Z,8.28
2018-12-22T09:35:18.443Z,8.26
2018-12-22T09:36:18.418Z,8.32
2018-12-22T09:37:18.401Z,8.32
2018-12-22T09:38:18.376Z,8.31
2018-12-22T09:39:18.350Z,8.26
2018-12-22T09:40:18.333Z,8.26
2018-12-22T09:41:18.304Z,8.34
2018-12-22T09:42:18.389Z,8.28
2018-12-22T09:43:18.257Z,8.29
2018-12-22T09:44:18.233Z,8.29
2018-12-22T09:45:18.210Z,8.31
2018-12-22T09:46:18.187Z,8.21
2018-12-22T09:47:18.165Z,8.29
2018-12-22T09:48:18.141Z,8.24
2018-12-22T09:49:18.118Z,8.31
2018-12-22T09:50:18.096Z,8.34
2018-12-22T09:51:18.079Z,8.28
2018-12-22T09:52:18.050Z,8.31
2018-12-22T09:53:18.030Z,8.31
2018-12-22T09:54:18.007Z,8.31
2018-12-22T09:55:17.983Z,8.31
2018-12-22T09:56:17.959Z,8.34
2018-12-22T09:57:17.932Z,8.31
2018-12-22T09:58:17.915Z,8.24
2018-12-22T09:59:17.886Z,8.35
2018-12-22T10:00:17.866Z,8.31
2018-12-22T10:01:17.842Z,8.34
2018-12-22T10:02:17.816Z,8.31
2018-12-22T10:03:17.795Z,8.31
2018-12-22T10:04:17.770Z,8.31
2018-12-22T10:05:17.752Z,8.34
2018-12-22T10:06:18.704Z,8.34
2018-12-22T10:07:17.703Z,8.34
2018-12-22T10:08:17.677Z,8.34
2018-12-22T10:09:17.654Z,8.32
2018-12-22T10:10:17.637Z,8.37
2018-12-22T10:11:17.609Z,8.35
2018-12-22T10:12:17.587Z,8.34
2018-12-22T10:13:17.568Z,8.32
2018-12-22T10:14:17.542Z,8.41
2018-12-22T10:15:17.517Z,8.29
2018-12-22T10:16:17.493Z,8.34
2018-12-22T10:17:17.471Z,8.24
2018-12-22T10:18:17.446Z,8.31
2018-12-22T10:19:17.427Z,8.24
2018-12-22T10:20:17.401Z,8.34
2018-12-22T10:21:17.378Z,8.34
2018-12-22T10:22:17.359Z,8.42
2018-12-22T10:23:17.332Z,8.35
2018-12-22T10:24:17.312Z,8.31
2018-12-22T10:25:17.289Z,8.38
2018-12-22T10:26:17.267Z,8.41
2018-12-22T10:27:17.239Z,8.41
2018-12-22T10:28:17.220Z,8.37
2018-12-22T10:29:17.194Z,8.39
2018-12-22T10:30:17.169Z,8.35
2018-12-22T10:31:18.183Z,8.37
2018-12-22T10:32:17.127Z,8.32
2018-12-22T10:33:17.100Z,8.34
2018-12-22T10:34:17.082Z,8.39
2018-12-22T10:35:17.054Z,8.37
2018-12-22T10:36:17.030Z,8.37
2018-12-22T10:37:17.012Z,8.44
2018-12-22T10:38:16.993Z,8.32
2018-12-22T10:39:16.961Z,8.47
2018-12-22T10:40:16.937Z,8.38
2018-12-22T10:41:16.914Z,8.39
2018-12-22T10:42:16.892Z,8.44
2018-12-22T10:43:16.870Z,8.34
2018-12-22T10:44:16.845Z,8.29
2018-12-22T10:45:16.822Z,8.35
2018-12-22T10:46:16.800Z,8.41
2018-12-22T10:47:16.782Z,8.47
2018-12-22T10:48:16.758Z,8.41
2018-12-22T10:49:16.729Z,8.38
2018-12-22T10:50:16.708Z,8.39
2018-12-22T10:51:24.067Z,8.31
2018-12-22T10:52:16.660Z,8.41
2018-12-22T10:53:16.638Z,8.35
2018-12-22T10:54:16.622Z,8.37
2018-12-22T10:55:16.596Z,8.37
2018-12-22T10:56:16.570Z,8.34
2018-12-22T10:57:16.545Z,8.44
2018-12-22T10:58:16.522Z,8.41
2018-12-22T10:59:16.503Z,8.38
2018-12-22T11:00:16.474Z,8.42
2018-12-22T11:01:16.450Z,8.39
2018-12-22T11:02:16.433Z,8.39
2018-12-22T11:03:16.405Z,8.38
2018-12-22T11:04:16.380Z,8.41
2018-12-22T11:05:16.358Z,8.38
2018-12-22T11:06:16.335Z,8.46
2018-12-22T11:07:16.318Z,8.37
2018-12-22T11:08:16.288Z,8.46
2018-12-22T11:09:16.360Z,8.46
2018-12-22T11:10:16.242Z,8.44
2018-12-22T11:11:16.218Z,8.42
2018-12-22T11:12:16.199Z,8.38
2018-12-22T11:13:16.172Z,8.44
2018-12-22T11:14:16.151Z,8.44
2018-12-22T11:15:16.126Z,8.38
2018-12-22T11:16:16.106Z,8.39
2018-12-22T11:17:16.078Z,8.39
2018-12-22T11:18:16.060Z,8.39
2018-12-22T11:19:16.036Z,8.50
2018-12-22T11:20:16.011Z,8.41
2018-12-22T11:21:15.986Z,8.50
2018-12-22T11:22:15.964Z,8.44
2018-12-22T11:23:20.395Z,8.52
2018-12-22T11:24:15.917Z,8.50
2018-12-22T11:25:15.897Z,8.50
2018-12-22T11:26:15.873Z,8.50
2018-12-22T11:27:15.852Z,8.50
2018-12-22T11:28:15.822Z,8.41
2018-12-22T11:29:15.801Z,8.44
2018-12-22T11:30:15.779Z,8.49
2018-12-22T11:31:15.756Z,8.53
2018-12-22T11:32:15.736Z,8.50
2018-12-22T11:33:15.708Z,8.53
2018-12-22T11:34:15.686Z,8.52
2018-12-22T11:35:15.663Z,8.49
2018-12-22T11:36:15.639Z,8.50
2018-12-22T11:37:15.617Z,8.52
2018-12-22T11:38:15.593Z,8.49
2018-12-22T11:39:15.571Z,8.52
2018-12-22T11:40:15.546Z,8.49
2018-12-22T11:41:15.524Z,8.55
2018-12-22T11:42:15.506Z,8.50
2018-12-22T11:43:15.479Z,8.49
2018-12-22T11:44:15.454Z,8.49
2018-12-22T11:45:15.433Z,8.52
2018-12-22T11:46:15.414Z,8.42
2018-12-22T11:47:15.385Z,8.39
2018-12-22T11:48:15.365Z,8.44
2018-12-22T11:49:15.340Z,8.50
2018-12-22T11:50:15.319Z,8.44
2018-12-22T11:51:15.295Z,8.39
2018-12-22T11:52:15.271Z,8.44
2018-12-22T11:53:15.248Z,8.44
2018-12-22T11:54:15.229Z,8.49
2018-12-22T11:55:15.201Z,8.49
2018-12-22T11:56:15.178Z,8.44
2018-12-22T11:57:15.155Z,8.49
2018-12-22T11:58:15.132Z,8.42
2018-12-22T11:59:15.114Z,8.50
2018-12-22T12:00:15.086Z,8.52
2018-12-22T12:01:15.067Z,8.56
2018-12-22T12:02:15.045Z,8.56
2018-12-22T12:03:15.023Z,8.63
2018-12-22T12:04:14.993Z,8.65
2018-12-22T12:05:14.978Z,8.71
2018-12-22T12:06:14.951Z,8.70
2018-12-22T12:07:14.924Z,8.70
2018-12-22T12:08:14.907Z,8.67
2018-12-22T12:09:14.880Z,8.68
2018-12-22T12:10:14.855Z,8.68
2018-12-22T12:11:14.839Z,8.63
2018-12-22T12:12:14.810Z,8.68
2018-12-22T12:13:14.787Z,8.70
2018-12-22T12:14:14.765Z,8.65
2018-12-22T12:15:14.745Z,8.62
2018-12-22T12:16:14.719Z,8.57
2018-12-22T12:17:14.696Z,8.60
2018-12-22T12:18:14.674Z,8.63
2018-12-22T12:19:14.655Z,8.60
2018-12-22T12:20:14.628Z,8.70
2018-12-22T12:21:14.608Z,8.67
2018-12-22T12:22:14.587Z,8.71
2018-12-22T12:23:14.559Z,8.77
2018-12-22T12:24:14.535Z,8.70
2018-12-22T12:25:14.517Z,8.77
2018-12-22T12:26:14.495Z,8.72
2018-12-22T12:27:14.473Z,8.77
2018-12-22T12:28:14.448Z,8.77
2018-12-22T12:29:14.422Z,8.77
2018-12-22T12:30:14.403Z,8.77
2018-12-22T12:31:14.376Z,8.77
2018-12-22T12:32:14.352Z,8.80
2018-12-22T12:33:14.329Z,8.81
2018-12-22T12:34:14.306Z,8.80
2018-12-22T12:35:14.284Z,8.77
2018-12-22T12:36:14.260Z,8.77
2018-12-22T12:37:14.242Z,8.78
2018-12-22T12:38:14.220Z,8.80
2018-12-22T12:39:14.196Z,8.86
2018-12-22T12:40:14.170Z,8.88
2018-12-22T12:41:14.178Z,8.93
2018-12-22T12:42:14.124Z,8.98
2018-12-22T12:43:14.103Z,8.96
2018-12-22T12:44:14.085Z,9.09
2018-12-22T12:45:14.055Z,8.98
2018-12-22T12:46:14.039Z,9.11
2018-12-22T12:47:14.012Z,9.12
2018-12-22T12:48:13.994Z,9.11
2018-12-22T12:49:13.965Z,9.11
2018-12-22T12:50:13.944Z,9.11
2018-12-22T12:51:13.925Z,9.11
2018-12-22T12:52:13.899Z,9.12
2018-12-22T12:53:13.877Z,9.12
2018-12-22T12:54:13.858Z,9.16
2018-12-22T12:55:13.831Z,9.27
2018-12-22T12:56:13.809Z,9.27
2018-12-22T12:57:13.786Z,9.29
2018-12-22T12:58:13.765Z,9.34
2018-12-22T12:59:13.741Z,9.40
2018-12-22T13:00:13.722Z,9.27
2018-12-22T13:01:13.697Z,9.30
2018-12-22T13:02:13.676Z,9.32
2018-12-22T13:03:13.655Z,9.22
2018-12-22T13:04:13.629Z,9.22
2018-12-22T13:05:13.608Z,9.24
2018-12-22T13:06:13.586Z,9.32
2018-12-22T13:07:13.566Z,9.30
2018-12-22T13:08:13.542Z,9.32
2018-12-22T13:09:15.831Z,9.30
2018-12-22T13:10:13.504Z,9.27
2018-12-22T13:11:13.478Z,9.19
2018-12-22T13:12:13.456Z,9.32
2018-12-22T13:13:13.434Z,9.33
2018-12-22T13:14:13.418Z,9.32
2018-12-22T13:15:13.390Z,9.33
2018-12-22T13:16:13.372Z,9.24
2018-12-22T13:17:13.345Z,9.37
2018-12-22T13:18:13.329Z,9.44